sensor_id;sensor_type;location;lat;lon;timestamp;temperature;humidity
19256;DHT22;9762;52.490;13.410;2022-11-14T00:00:29;11.20;99.80
19256;DHT22;9762;52.490;13.410;2022-11-14T00:02:58;11.10;99.90
19256;DHT22;9762;52.490;13.410;2022-11-14T00:05:23;11.00;99.90
19256;DHT22;9762;52.490;13.410;2022-11-14T00:07:49;11.00;99.90
19256;DHT22;9762;52.490;13.410;2022-11-14T00:10:15;10.90;99.90
19256;DHT22;9762;52.490;13.410;2022-11-14T00:12:41;10.90;99.90
19256;DHT22;9762;52.490;13.410;2022-11-14T00:15:08;10.90;99.90
19256;DHT22;9762;52.490;13.410;2022-11-14T00:17:34;11.00;99.90
19256;DHT22;9762;52.490;13.410;2022-11-14T00:20:00;11.00;99.90
19256;DHT22;9762;52.490;13.410;2022-11-14T00:22:25;11.00;99.90
19256;DHT22;9762;52.490;13.410;2022-11-14T00:24:51;11.10;99.90
19256;DHT22;9762;52.490;13.410;2022-11-14T00:27:17;11.10;99.90
19256;DHT22;9762;52.490;13.410;2022-11-14T00:29:42;11.10;99.90
19256;DHT22;9762;52.490;13.410;2022-11-14T00:32:08;11.10;99.90
19256;DHT22;9762;52.490;13.410;2022-11-14T00:34:33;11.00;99.90
19256;DHT22;9762;52.490;13.410;2022-11-14T00:36:59;11.00;99.90
19256;DHT22;9762;52.490;13.410;2022-11-14T00:39:25;11.10;99.90
19256;DHT22;9762;52.490;13.410;2022-11-14T00:41:51;11.10;99.90
19256;DHT22;9762;52.490;13.410;2022-11-14T00:44:17;11.10;99.90
19256;DHT22;9762;52.490;13.410;2022-11-14T00:46:43;11.20;99.90
19256;DHT22;9762;52.490;13.410;2022-11-14T00:49:09;11.10;99.90
19256;DHT22;9762;52.490;13.410;2022-11-14T00:51:35;11.00;99.90
19256;DHT22;9762;52.490;13.410;2022-11-14T00:54:01;11.00;99.90
19256;DHT22;9762;52.490;13.410;2022-11-14T00:56:27;11.00;99.90
19256;DHT22;9762;52.490;13.410;2022-11-14T00:58:52;11.00;99.90
19256;DHT22;9762;52.490;13.410;2022-11-14T01:01:18;11.00;99.90
19256;DHT22;9762;52.490;13.410;2022-11-14T01:03:48;11.00;99.90
19256;DHT22;9762;52.490;13.410;2022-11-14T01:06:14;11.00;99.90
19256;DHT22;9762;52.490;13.410;2022-11-14T01:08:41;11.00;99.90
19256;DHT22;9762;52.490;13.410;2022-11-14T01:11:16;11.00;99.90
19256;DHT22;9762;52.490;13.410;2022-11-14T01:13:42;10.90;99.90
19256;DHT22;9762;52.490;13.410;2022-11-14T01:16:09;10.90;99.90
19256;DHT22;9762;52.490;13.410;2022-11-14T01:18:35;10.80;99.90
19256;DHT22;9762;52.490;13.410;2022-11-14T01:21:05;10.80;99.90
19256;DHT22;9762;52.490;13.410;2022-11-14T01:23:31;10.80;99.90
19256;DHT22;9762;52.490;13.410;2022-11-14T01:26:05;10.90;99.90
19256;DHT22;9762;52.490;13.410;2022-11-14T01:28:31;10.90;99.90
19256;DHT22;9762;52.490;13.410;2022-11-14T01:31:10;10.80;99.90
19256;DHT22;9762;52.490;13.410;2022-11-14T01:33:35;10.80;99.90
19256;DHT22;9762;52.490;13.410;2022-11-14T01:36:01;10.80;99.90
19256;DHT22;9762;52.490;13.410;2022-11-14T01:38:27;10.80;99.90
19256;DHT22;9762;52.490;13.410;2022-11-14T01:40:52;10.90;99.90
19256;DHT22;9762;52.490;13.410;2022-11-14T01:45:53;10.90;99.90
19256;DHT22;9762;52.490;13.410;2022-11-14T01:48:26;10.90;99.90
19256;DHT22;9762;52.490;13.410;2022-11-14T01:51:00;10.90;99.90
19256;DHT22;9762;52.490;13.410;2022-11-14T01:53:27;10.90;99.90
19256;DHT22;9762;52.490;13.410;2022-11-14T01:55:57;10.80;99.90
19256;DHT22;9762;52.490;13.410;2022-11-14T01:58:23;10.80;99.90
19256;DHT22;9762;52.490;13.410;2022-11-14T02:00:50;10.80;99.90
19256;DHT22;9762;52.490;13.410;2022-11-14T02:03:17;10.80;99.90
19256;DHT22;9762;52.490;13.410;2022-11-14T02:05:44;10.80;99.90
19256;DHT22;9762;52.490;13.410;2022-11-14T02:08:13;10.70;99.90
19256;DHT22;9762;52.490;13.410;2022-11-14T02:10:39;10.70;99.90
19256;DHT22;9762;52.490;13.410;2022-11-14T02:13:05;10.80;99.90
19256;DHT22;9762;52.490;13.410;2022-11-14T02:15:31;10.80;99.90
19256;DHT22;9762;52.490;13.410;2022-11-14T02:17:57;10.90;99.90
19256;DHT22;9762;52.490;13.410;2022-11-14T02:20:26;10.90;99.90
19256;DHT22;9762;52.490;13.410;2022-11-14T02:22:57;10.90;99.90
19256;DHT22;9762;52.490;13.410;2022-11-14T02:25:23;10.90;99.90
19256;DHT22;9762;52.490;13.410;2022-11-14T02:27:49;10.90;99.90
19256;DHT22;9762;52.490;13.410;2022-11-14T02:30:18;10.90;99.90
19256;DHT22;9762;52.490;13.410;2022-11-14T02:32:44;11.00;99.90
19256;DHT22;9762;52.490;13.410;2022-11-14T02:35:10;11.00;99.90
19256;DHT22;9762;52.490;13.410;2022-11-14T02:37:36;11.00;99.90
19256;DHT22;9762;52.490;13.410;2022-11-14T02:40:02;11.10;99.90
19256;DHT22;9762;52.490;13.410;2022-11-14T02:42:28;11.10;99.90
19256;DHT22;9762;52.490;13.410;2022-11-14T02:44:54;11.20;99.90
19256;DHT22;9762;52.490;13.410;2022-11-14T02:47:19;11.20;99.90
19256;DHT22;9762;52.490;13.410;2022-11-14T02:49:45;11.20;99.90
19256;DHT22;9762;52.490;13.410;2022-11-14T02:52:10;11.20;99.90
19256;DHT22;9762;52.490;13.410;2022-11-14T02:54:36;11.20;99.90
19256;DHT22;9762;52.490;13.410;2022-11-14T02:57:02;11.30;99.90
19256;DHT22;9762;52.490;13.410;2022-11-14T02:59:27;11.30;99.80
19256;DHT22;9762;52.490;13.410;2022-11-14T03:01:53;11.30;99.80
19256;DHT22;9762;52.490;13.410;2022-11-14T03:04:18;11.30;99.80
19256;DHT22;9762;52.490;13.410;2022-11-14T03:06:44;11.30;99.80
19256;DHT22;9762;52.490;13.410;2022-11-14T03:09:10;11.30;99.80
19256;DHT22;9762;52.490;13.410;2022-11-14T03:11:35;11.30;99.70
19256;DHT22;9762;52.490;13.410;2022-11-14T03:14:01;11.30;99.70
19256;DHT22;9762;52.490;13.410;2022-11-14T03:16:26;11.30;99.70
19256;DHT22;9762;52.490;13.410;2022-11-14T03:18:52;11.30;99.70
19256;DHT22;9762;52.490;13.410;2022-11-14T03:21:19;11.20;99.70
19256;DHT22;9762;52.490;13.410;2022-11-14T03:23:45;11.20;99.90
19256;DHT22;9762;52.490;13.410;2022-11-14T03:26:12;11.20;99.90
19256;DHT22;9762;52.490;13.410;2022-11-14T03:28:38;11.20;99.90
19256;DHT22;9762;52.490;13.410;2022-11-14T03:31:05;11.20;99.70
19256;DHT22;9762;52.490;13.410;2022-11-14T03:33:31;11.20;99.70
19256;DHT22;9762;52.490;13.410;2022-11-14T03:35:57;11.30;99.70
19256;DHT22;9762;52.490;13.410;2022-11-14T03:38:23;11.30;99.90
19256;DHT22;9762;52.490;13.410;2022-11-14T03:40:50;11.30;99.60
19256;DHT22;9762;52.490;13.410;2022-11-14T03:43:17;11.30;99.70
19256;DHT22;9762;52.490;13.410;2022-11-14T03:45:43;11.20;99.60
19256;DHT22;9762;52.490;13.410;2022-11-14T03:48:08;11.30;99.70
19256;DHT22;9762;52.490;13.410;2022-11-14T03:50:34;11.30;99.60
19256;DHT22;9762;52.490;13.410;2022-11-14T03:53:00;11.20;99.60
19256;DHT22;9762;52.490;13.410;2022-11-14T03:55:26;11.30;99.60
19256;DHT22;9762;52.490;13.410;2022-11-14T03:57:51;11.30;99.60
19256;DHT22;9762;52.490;13.410;2022-11-14T04:00:17;11.30;99.50
19256;DHT22;9762;52.490;13.410;2022-11-14T04:02:43;11.20;99.60
19256;DHT22;9762;52.490;13.410;2022-11-14T04:05:09;11.20;99.60
19256;DHT22;9762;52.490;13.410;2022-11-14T04:07:34;11.20;99.60
19256;DHT22;9762;52.490;13.410;2022-11-14T04:10:00;11.20;99.60
19256;DHT22;9762;52.490;13.410;2022-11-14T04:12:26;11.20;99.60
19256;DHT22;9762;52.490;13.410;2022-11-14T04:14:51;11.10;99.60
19256;DHT22;9762;52.490;13.410;2022-11-14T04:17:17;11.10;99.80
19256;DHT22;9762;52.490;13.410;2022-11-14T04:19:43;11.10;99.80
19256;DHT22;9762;52.490;13.410;2022-11-14T04:22:08;11.00;99.70
19256;DHT22;9762;52.490;13.410;2022-11-14T04:24:34;11.00;99.80
19256;DHT22;9762;52.490;13.410;2022-11-14T04:27:00;10.90;99.80
19256;DHT22;9762;52.490;13.410;2022-11-14T04:29:25;10.90;99.90
19256;DHT22;9762;52.490;13.410;2022-11-14T04:31:51;10.90;99.90
19256;DHT22;9762;52.490;13.410;2022-11-14T04:34:16;10.90;99.90
19256;DHT22;9762;52.490;13.410;2022-11-14T04:36:42;10.90;99.90
19256;DHT22;9762;52.490;13.410;2022-11-14T04:39:08;10.90;99.90
19256;DHT22;9762;52.490;13.410;2022-11-14T04:41:33;10.90;99.90
19256;DHT22;9762;52.490;13.410;2022-11-14T04:43:59;11.00;99.90
19256;DHT22;9762;52.490;13.410;2022-11-14T04:46:24;11.00;99.80
19256;DHT22;9762;52.490;13.410;2022-11-14T04:48:50;11.00;99.70
19256;DHT22;9762;52.490;13.410;2022-11-14T04:51:16;11.10;99.70
19256;DHT22;9762;52.490;13.410;2022-11-14T04:53:41;11.00;99.60
19256;DHT22;9762;52.490;13.410;2022-11-14T04:56:07;11.00;99.70
19256;DHT22;9762;52.490;13.410;2022-11-14T04:58:33;11.10;99.60
19256;DHT22;9762;52.490;13.410;2022-11-14T05:00:58;11.10;99.60
19256;DHT22;9762;52.490;13.410;2022-11-14T05:03:24;11.00;99.50
19256;DHT22;9762;52.490;13.410;2022-11-14T05:05:50;11.00;99.60
19256;DHT22;9762;52.490;13.410;2022-11-14T05:08:16;11.00;99.60
19256;DHT22;9762;52.490;13.410;2022-11-14T05:10:42;11.00;99.70
19256;DHT22;9762;52.490;13.410;2022-11-14T05:13:09;11.00;99.60
19256;DHT22;9762;52.490;13.410;2022-11-14T05:15:35;11.00;99.50
19256;DHT22;9762;52.490;13.410;2022-11-14T05:18:00;11.00;99.50
19256;DHT22;9762;52.490;13.410;2022-11-14T05:20:26;11.00;99.60
19256;DHT22;9762;52.490;13.410;2022-11-14T05:22:55;11.00;99.70
19256;DHT22;9762;52.490;13.410;2022-11-14T05:25:22;11.00;99.60
19256;DHT22;9762;52.490;13.410;2022-11-14T05:27:48;11.00;99.60
19256;DHT22;9762;52.490;13.410;2022-11-14T05:30:14;10.90;99.70
19256;DHT22;9762;52.490;13.410;2022-11-14T05:32:40;10.90;99.80
19256;DHT22;9762;52.490;13.410;2022-11-14T05:35:05;10.90;99.90
19256;DHT22;9762;52.490;13.410;2022-11-14T05:37:33;11.00;99.90
19256;DHT22;9762;52.490;13.410;2022-11-14T05:39:58;11.00;99.80
19256;DHT22;9762;52.490;13.410;2022-11-14T05:42:25;11.00;99.70
19256;DHT22;9762;52.490;13.410;2022-11-14T05:44:51;11.00;99.70
19256;DHT22;9762;52.490;13.410;2022-11-14T05:47:17;11.00;99.70
19256;DHT22;9762;52.490;13.410;2022-11-14T05:49:42;11.00;99.70
19256;DHT22;9762;52.490;13.410;2022-11-14T05:52:08;11.00;99.70
19256;DHT22;9762;52.490;13.410;2022-11-14T05:54:33;11.00;99.70
19256;DHT22;9762;52.490;13.410;2022-11-14T05:56:59;11.10;99.70
19256;DHT22;9762;52.490;13.410;2022-11-14T05:59:24;11.00;99.70
19256;DHT22;9762;52.490;13.410;2022-11-14T06:01:50;11.00;99.70
19256;DHT22;9762;52.490;13.410;2022-11-14T06:04:16;11.00;99.60
19256;DHT22;9762;52.490;13.410;2022-11-14T06:06:41;11.00;99.70
19256;DHT22;9762;52.490;13.410;2022-11-14T06:09:07;10.90;99.80
19256;DHT22;9762;52.490;13.410;2022-11-14T06:11:33;10.90;99.90
19256;DHT22;9762;52.490;13.410;2022-11-14T06:13:58;10.90;99.90
19256;DHT22;9762;52.490;13.410;2022-11-14T06:16:24;10.80;99.90
19256;DHT22;9762;52.490;13.410;2022-11-14T06:18:52;10.90;99.90
19256;DHT22;9762;52.490;13.410;2022-11-14T06:21:20;10.90;99.90
19256;DHT22;9762;52.490;13.410;2022-11-14T06:23:46;10.90;99.90
19256;DHT22;9762;52.490;13.410;2022-11-14T06:26:33;10.90;99.80
19256;DHT22;9762;52.490;13.410;2022-11-14T06:28:59;10.90;99.90
19256;DHT22;9762;52.490;13.410;2022-11-14T06:31:25;11.00;99.80
19256;DHT22;9762;52.490;13.410;2022-11-14T06:33:51;10.90;99.70
19256;DHT22;9762;52.490;13.410;2022-11-14T06:36:17;10.90;99.80
19256;DHT22;9762;52.490;13.410;2022-11-14T06:38:43;10.80;99.80
19256;DHT22;9762;52.490;13.410;2022-11-14T06:41:17;10.80;99.90
19256;DHT22;9762;52.490;13.410;2022-11-14T06:43:45;10.80;99.90
19256;DHT22;9762;52.490;13.410;2022-11-14T06:46:13;10.70;99.90
19256;DHT22;9762;52.490;13.410;2022-11-14T06:48:39;10.70;99.90
19256;DHT22;9762;52.490;13.410;2022-11-14T06:51:05;10.70;99.90
19256;DHT22;9762;52.490;13.410;2022-11-14T06:53:33;10.70;99.90
19256;DHT22;9762;52.490;13.410;2022-11-14T06:56:01;10.70;99.90
19256;DHT22;9762;52.490;13.410;2022-11-14T06:58:29;10.70;99.90
19256;DHT22;9762;52.490;13.410;2022-11-14T07:00:54;10.70;99.90
19256;DHT22;9762;52.490;13.410;2022-11-14T07:03:20;10.60;99.90
19256;DHT22;9762;52.490;13.410;2022-11-14T07:05:46;10.60;99.90
19256;DHT22;9762;52.490;13.410;2022-11-14T07:08:12;10.60;99.90
19256;DHT22;9762;52.490;13.410;2022-11-14T07:10:38;10.50;99.90
19256;DHT22;9762;52.490;13.410;2022-11-14T07:13:04;10.60;99.90
19256;DHT22;9762;52.490;13.410;2022-11-14T07:15:29;10.60;99.90
19256;DHT22;9762;52.490;13.410;2022-11-14T07:17:55;10.70;99.90
19256;DHT22;9762;52.490;13.410;2022-11-14T07:20:22;10.70;99.90
19256;DHT22;9762;52.490;13.410;2022-11-14T07:22:48;10.80;99.90
19256;DHT22;9762;52.490;13.410;2022-11-14T07:25:13;10.80;99.90
19256;DHT22;9762;52.490;13.410;2022-11-14T07:27:39;10.80;99.90
19256;DHT22;9762;52.490;13.410;2022-11-14T07:30:05;10.90;99.90
19256;DHT22;9762;52.490;13.410;2022-11-14T07:32:31;10.90;99.90
19256;DHT22;9762;52.490;13.410;2022-11-14T07:34:56;10.90;99.90
19256;DHT22;9762;52.490;13.410;2022-11-14T07:37:22;11.00;99.90
19256;DHT22;9762;52.490;13.410;2022-11-14T07:39:48;11.00;99.90
19256;DHT22;9762;52.490;13.410;2022-11-14T07:42:14;11.00;99.90
19256;DHT22;9762;52.490;13.410;2022-11-14T07:44:39;11.10;99.90
19256;DHT22;9762;52.490;13.410;2022-11-14T07:47:05;11.10;99.90
19256;DHT22;9762;52.490;13.410;2022-11-14T07:49:31;11.10;99.90
19256;DHT22;9762;52.490;13.410;2022-11-14T07:51:56;11.20;99.70
19256;DHT22;9762;52.490;13.410;2022-11-14T07:54:22;11.20;99.50
19256;DHT22;9762;52.490;13.410;2022-11-14T07:56:47;11.20;99.40
19256;DHT22;9762;52.490;13.410;2022-11-14T07:59:13;11.20;99.40
19256;DHT22;9762;52.490;13.410;2022-11-14T08:01:39;11.20;99.40
19256;DHT22;9762;52.490;13.410;2022-11-14T08:04:04;11.20;99.40
19256;DHT22;9762;52.490;13.410;2022-11-14T08:06:30;11.20;99.50
19256;DHT22;9762;52.490;13.410;2022-11-14T08:08:55;11.20;99.90
19256;DHT22;9762;52.490;13.410;2022-11-14T08:11:21;11.20;99.90
19256;DHT22;9762;52.490;13.410;2022-11-14T08:14:07;11.30;99.40
19256;DHT22;9762;52.490;13.410;2022-11-14T08:16:32;11.30;99.20
19256;DHT22;9762;52.490;13.410;2022-11-14T08:18:58;11.30;99.20
19256;DHT22;9762;52.490;13.410;2022-11-14T08:21:24;11.30;99.20
19256;DHT22;9762;52.490;13.410;2022-11-14T08:23:49;11.40;99.10
19256;DHT22;9762;52.490;13.410;2022-11-14T08:26:15;11.40;98.90
19256;DHT22;9762;52.490;13.410;2022-11-14T08:28:41;11.50;98.90
19256;DHT22;9762;52.490;13.410;2022-11-14T08:31:06;11.50;98.60
19256;DHT22;9762;52.490;13.410;2022-11-14T08:33:32;11.50;98.60
19256;DHT22;9762;52.490;13.410;2022-11-14T08:36:05;11.50;98.70
19256;DHT22;9762;52.490;13.410;2022-11-14T08:38:32;11.40;98.60
19256;DHT22;9762;52.490;13.410;2022-11-14T08:40:59;11.30;98.60
19256;DHT22;9762;52.490;13.410;2022-11-14T08:43:25;11.40;98.70
19256;DHT22;9762;52.490;13.410;2022-11-14T08:45:51;11.30;99.10
19256;DHT22;9762;52.490;13.410;2022-11-14T08:48:16;11.40;98.80
19256;DHT22;9762;52.490;13.410;2022-11-14T08:50:42;11.40;98.70
19256;DHT22;9762;52.490;13.410;2022-11-14T08:53:08;11.40;98.80
19256;DHT22;9762;52.490;13.410;2022-11-14T08:55:33;11.50;99.20
19256;DHT22;9762;52.490;13.410;2022-11-14T08:57:59;11.50;99.00
19256;DHT22;9762;52.490;13.410;2022-11-14T09:00:25;11.50;98.70
19256;DHT22;9762;52.490;13.410;2022-11-14T09:02:50;11.60;98.60
19256;DHT22;9762;52.490;13.410;2022-11-14T09:05:16;11.60;98.60
19256;DHT22;9762;52.490;13.410;2022-11-14T09:07:42;11.70;98.50
19256;DHT22;9762;52.490;13.410;2022-11-14T09:10:08;11.70;98.40
19256;DHT22;9762;52.490;13.410;2022-11-14T09:12:34;11.80;98.20
19256;DHT22;9762;52.490;13.410;2022-11-14T09:15:00;11.90;98.10
19256;DHT22;9762;52.490;13.410;2022-11-14T09:17:25;11.90;98.00
19256;DHT22;9762;52.490;13.410;2022-11-14T09:19:51;12.00;98.00
19256;DHT22;9762;52.490;13.410;2022-11-14T09:22:17;12.00;97.80
19256;DHT22;9762;52.490;13.410;2022-11-14T09:24:43;12.00;97.70
19256;DHT22;9762;52.490;13.410;2022-11-14T09:27:11;12.00;97.80
19256;DHT22;9762;52.490;13.410;2022-11-14T09:29:37;12.10;98.20
19256;DHT22;9762;52.490;13.410;2022-11-14T09:32:03;12.10;98.30
19256;DHT22;9762;52.490;13.410;2022-11-14T09:34:29;12.10;97.80
19256;DHT22;9762;52.490;13.410;2022-11-14T09:36:54;12.20;97.50
19256;DHT22;9762;52.490;13.410;2022-11-14T09:39:20;12.30;97.20
19256;DHT22;9762;52.490;13.410;2022-11-14T09:47:15;12.20;96.80
19256;DHT22;9762;52.490;13.410;2022-11-14T09:49:44;12.20;97.10
19256;DHT22;9762;52.490;13.410;2022-11-14T09:52:24;12.30;97.20
19256;DHT22;9762;52.490;13.410;2022-11-14T09:54:56;12.30;97.10
19256;DHT22;9762;52.490;13.410;2022-11-14T09:57:24;12.40;97.10
19256;DHT22;9762;52.490;13.410;2022-11-14T09:59:50;12.50;96.90
19256;DHT22;9762;52.490;13.410;2022-11-14T10:02:39;12.60;96.80
19256;DHT22;9762;52.490;13.410;2022-11-14T10:07:59;12.60;96.50
19256;DHT22;9762;52.490;13.410;2022-11-14T10:13:35;12.70;96.40
19256;DHT22;9762;52.490;13.410;2022-11-14T10:21:48;12.70;96.30
19256;DHT22;9762;52.490;13.410;2022-11-14T10:27:04;12.80;96.20
19256;DHT22;9762;52.490;13.410;2022-11-14T10:32:36;13.00;96.20
19256;DHT22;9762;52.490;13.410;2022-11-14T10:35:30;13.10;96.00
19256;DHT22;9762;52.490;13.410;2022-11-14T10:40:48;13.20;95.70
19256;DHT22;9762;52.490;13.410;2022-11-14T10:45:59;13.40;95.60
19256;DHT22;9762;52.490;13.410;2022-11-14T10:48:39;13.40;95.30
19256;DHT22;9762;52.490;13.410;2022-11-14T10:51:28;13.50;95.20
19256;DHT22;9762;52.490;13.410;2022-11-14T10:56:34;13.60;94.90
19256;DHT22;9762;52.490;13.410;2022-11-14T10:59:00;13.60;94.90
19256;DHT22;9762;52.490;13.410;2022-11-14T11:01:32;13.70;95.10
19256;DHT22;9762;52.490;13.410;2022-11-14T11:06:53;13.80;94.80
19256;DHT22;9762;52.490;13.410;2022-11-14T11:09:28;13.80;94.80
19256;DHT22;9762;52.490;13.410;2022-11-14T11:12:20;13.90;94.70
19256;DHT22;9762;52.490;13.410;2022-11-14T11:14:48;13.90;94.60
19256;DHT22;9762;52.490;13.410;2022-11-14T11:17:19;14.00;94.20
19256;DHT22;9762;52.490;13.410;2022-11-14T11:19:45;14.00;94.30
19256;DHT22;9762;52.490;13.410;2022-11-14T11:22:36;14.10;94.40
19256;DHT22;9762;52.490;13.410;2022-11-14T11:25:22;14.10;94.20
19256;DHT22;9762;52.490;13.410;2022-11-14T11:28:15;14.20;93.90
19256;DHT22;9762;52.490;13.410;2022-11-14T11:30:56;14.10;93.60
19256;DHT22;9762;52.490;13.410;2022-11-14T11:33:24;14.20;93.70
19256;DHT22;9762;52.490;13.410;2022-11-14T11:35:54;14.20;93.90
19256;DHT22;9762;52.490;13.410;2022-11-14T11:38:21;14.30;93.70
19256;DHT22;9762;52.490;13.410;2022-11-14T11:40:50;14.40;93.80
19256;DHT22;9762;52.490;13.410;2022-11-14T11:45:49;14.50;93.50
19256;DHT22;9762;52.490;13.410;2022-11-14T11:48:22;14.50;93.20
19256;DHT22;9762;52.490;13.410;2022-11-14T11:50:51;14.50;93.00
19256;DHT22;9762;52.490;13.410;2022-11-14T11:53:25;14.50;93.10
19256;DHT22;9762;52.490;13.410;2022-11-14T11:55:58;14.60;93.00
19256;DHT22;9762;52.490;13.410;2022-11-14T11:58:31;14.50;93.10
19256;DHT22;9762;52.490;13.410;2022-11-14T12:01:00;14.60;93.00
19256;DHT22;9762;52.490;13.410;2022-11-14T12:03:26;14.60;93.10
19256;DHT22;9762;52.490;13.410;2022-11-14T12:11:28;14.80;92.80
19256;DHT22;9762;52.490;13.410;2022-11-14T12:16:59;14.90;92.50
19256;DHT22;9762;52.490;13.410;2022-11-14T12:30:36;15.00;92.20
19256;DHT22;9762;52.490;13.410;2022-11-14T12:33:09;15.00;91.90
19256;DHT22;9762;52.490;13.410;2022-11-14T12:35:36;15.00;92.00
19256;DHT22;9762;52.490;13.410;2022-11-14T12:38:05;15.00;91.90
19256;DHT22;9762;52.490;13.410;2022-11-14T12:40:39;15.10;91.90
19256;DHT22;9762;52.490;13.410;2022-11-14T12:43:26;15.10;91.80
19256;DHT22;9762;52.490;13.410;2022-11-14T12:45:56;15.10;91.80
19256;DHT22;9762;52.490;13.410;2022-11-14T12:50:51;15.20;91.80
19256;DHT22;9762;52.490;13.410;2022-11-14T13:04:43;15.20;91.40
19256;DHT22;9762;52.490;13.410;2022-11-14T13:10:13;15.20;91.50
19256;DHT22;9762;52.490;13.410;2022-11-14T13:13:12;15.20;91.50
19256;DHT22;9762;52.490;13.410;2022-11-14T13:16:01;15.20;91.40
19256;DHT22;9762;52.490;13.410;2022-11-14T13:27:32;15.20;91.80
19256;DHT22;9762;52.490;13.410;2022-11-14T13:29:59;15.30;91.60
19256;DHT22;9762;52.490;13.410;2022-11-14T13:40:54;15.30;91.60
19256;DHT22;9762;52.490;13.410;2022-11-14T13:43:28;15.40;91.60
19256;DHT22;9762;52.490;13.410;2022-11-14T13:48:51;15.40;91.50
19256;DHT22;9762;52.490;13.410;2022-11-14T13:51:20;15.40;91.50
19256;DHT22;9762;52.490;13.410;2022-11-14T13:53:47;15.40;91.60
19256;DHT22;9762;52.490;13.410;2022-11-14T14:08:12;15.30;91.50
19256;DHT22;9762;52.490;13.410;2022-11-14T14:16:14;15.20;91.70
19256;DHT22;9762;52.490;13.410;2022-11-14T14:19:07;15.20;91.80
19256;DHT22;9762;52.490;13.410;2022-11-14T14:21:55;15.20;91.80
19256;DHT22;9762;52.490;13.410;2022-11-14T14:32:36;15.20;91.90
19256;DHT22;9762;52.490;13.410;2022-11-14T14:35:22;15.20;91.90
19256;DHT22;9762;52.490;13.410;2022-11-14T14:37:52;15.10;91.90
19256;DHT22;9762;52.490;13.410;2022-11-14T14:40:24;15.10;91.90
19256;DHT22;9762;52.490;13.410;2022-11-14T14:42:51;15.10;91.90
19256;DHT22;9762;52.490;13.410;2022-11-14T14:45:19;15.10;92.00
19256;DHT22;9762;52.490;13.410;2022-11-14T14:47:47;15.10;92.00
19256;DHT22;9762;52.490;13.410;2022-11-14T14:50:18;15.10;92.10
19256;DHT22;9762;52.490;13.410;2022-11-14T14:52:44;15.00;92.00
19256;DHT22;9762;52.490;13.410;2022-11-14T14:55:28;15.00;92.10
19256;DHT22;9762;52.490;13.410;2022-11-14T14:57:54;15.00;92.10
19256;DHT22;9762;52.490;13.410;2022-11-14T15:00:22;15.00;92.10
19256;DHT22;9762;52.490;13.410;2022-11-14T15:02:54;15.00;92.20
19256;DHT22;9762;52.490;13.410;2022-11-14T15:05:24;15.00;92.20
19256;DHT22;9762;52.490;13.410;2022-11-14T15:07:52;14.90;92.30
19256;DHT22;9762;52.490;13.410;2022-11-14T15:10:25;14.90;92.40
19256;DHT22;9762;52.490;13.410;2022-11-14T15:12:51;14.90;92.70
19256;DHT22;9762;52.490;13.410;2022-11-14T15:15:19;14.90;92.80
19256;DHT22;9762;52.490;13.410;2022-11-14T15:17:47;14.90;92.70
19256;DHT22;9762;52.490;13.410;2022-11-14T15:20:24;14.80;92.70
19256;DHT22;9762;52.490;13.410;2022-11-14T15:25:29;14.70;93.10
19256;DHT22;9762;52.490;13.410;2022-11-14T15:27:55;14.70;92.80
19256;DHT22;9762;52.490;13.410;2022-11-14T15:30:27;14.60;92.80
19256;DHT22;9762;52.490;13.410;2022-11-14T15:32:57;14.60;92.80
19256;DHT22;9762;52.490;13.410;2022-11-14T15:35:34;14.60;92.90
19256;DHT22;9762;52.490;13.410;2022-11-14T15:40:36;14.60;93.00
19256;DHT22;9762;52.490;13.410;2022-11-14T15:43:34;14.50;93.10
19256;DHT22;9762;52.490;13.410;2022-11-14T15:46:01;14.50;93.20
19256;DHT22;9762;52.490;13.410;2022-11-14T15:48:26;14.50;93.20
19256;DHT22;9762;52.490;13.410;2022-11-14T15:50:53;14.40;93.20
19256;DHT22;9762;52.490;13.410;2022-11-14T15:55:44;14.40;93.40
19256;DHT22;9762;52.490;13.410;2022-11-14T15:58:10;14.40;93.80
19256;DHT22;9762;52.490;13.410;2022-11-14T16:00:42;14.30;93.70
19256;DHT22;9762;52.490;13.410;2022-11-14T16:03:10;14.30;93.60
19256;DHT22;9762;52.490;13.410;2022-11-14T16:05:36;14.30;93.60
19256;DHT22;9762;52.490;13.410;2022-11-14T16:08:03;14.20;93.70
19256;DHT22;9762;52.490;13.410;2022-11-14T16:10:29;14.20;93.70
19256;DHT22;9762;52.490;13.410;2022-11-14T16:12:54;14.10;93.80
19256;DHT22;9762;52.490;13.410;2022-11-14T16:15:21;14.10;93.80
19256;DHT22;9762;52.490;13.410;2022-11-14T16:17:48;14.10;93.80
19256;DHT22;9762;52.490;13.410;2022-11-14T16:20:19;14.00;93.90
19256;DHT22;9762;52.490;13.410;2022-11-14T16:22:46;14.00;94.00
19256;DHT22;9762;52.490;13.410;2022-11-14T16:25:19;13.90;94.00
19256;DHT22;9762;52.490;13.410;2022-11-14T16:27:45;13.90;94.10
19256;DHT22;9762;52.490;13.410;2022-11-14T16:30:13;13.90;94.20
19256;DHT22;9762;52.490;13.410;2022-11-14T16:32:40;13.80;94.30
19256;DHT22;9762;52.490;13.410;2022-11-14T16:35:11;13.80;94.40
19256;DHT22;9762;52.490;13.410;2022-11-14T16:37:37;13.70;94.60
19256;DHT22;9762;52.490;13.410;2022-11-14T16:40:03;13.70;94.80
19256;DHT22;9762;52.490;13.410;2022-11-14T16:42:29;13.60;94.80
19256;DHT22;9762;52.490;13.410;2022-11-14T16:45:01;13.60;94.80
19256;DHT22;9762;52.490;13.410;2022-11-14T16:47:27;13.60;94.80
19256;DHT22;9762;52.490;13.410;2022-11-14T16:49:53;13.50;95.10
19256;DHT22;9762;52.490;13.410;2022-11-14T16:52:19;13.50;94.80
19256;DHT22;9762;52.490;13.410;2022-11-14T16:54:45;13.40;94.90
19256;DHT22;9762;52.490;13.410;2022-11-14T16:57:11;13.40;95.00
19256;DHT22;9762;52.490;13.410;2022-11-14T16:59:36;13.30;95.10
19256;DHT22;9762;52.490;13.410;2022-11-14T17:02:03;13.30;95.20
19256;DHT22;9762;52.490;13.410;2022-11-14T17:04:29;13.20;95.30
19256;DHT22;9762;52.490;13.410;2022-11-14T17:06:54;13.20;95.40
19256;DHT22;9762;52.490;13.410;2022-11-14T17:09:20;13.10;95.40
19256;DHT22;9762;52.490;13.410;2022-11-14T17:11:45;13.10;95.50
19256;DHT22;9762;52.490;13.410;2022-11-14T17:14:11;13.10;95.60
19256;DHT22;9762;52.490;13.410;2022-11-14T17:16:37;13.00;95.60
19256;DHT22;9762;52.490;13.410;2022-11-14T17:19:03;13.00;95.70
19256;DHT22;9762;52.490;13.410;2022-11-14T17:21:28;13.00;95.80
19256;DHT22;9762;52.490;13.410;2022-11-14T17:23:55;12.90;95.70
19256;DHT22;9762;52.490;13.410;2022-11-14T17:26:21;12.90;95.80
19256;DHT22;9762;52.490;13.410;2022-11-14T17:28:47;12.90;95.80
19256;DHT22;9762;52.490;13.410;2022-11-14T17:31:12;12.90;95.90
19256;DHT22;9762;52.490;13.410;2022-11-14T17:33:38;12.90;95.90
19256;DHT22;9762;52.490;13.410;2022-11-14T17:36:05;12.80;96.00
19256;DHT22;9762;52.490;13.410;2022-11-14T17:38:33;12.80;96.10
19256;DHT22;9762;52.490;13.410;2022-11-14T17:40:59;12.70;96.10
19256;DHT22;9762;52.490;13.410;2022-11-14T17:43:25;12.70;96.30